createdAt,value
2018-04-07T00:00:51.957Z,0
2018-04-07T00:01:53.575Z,0
2018-04-07T00:02:55.193Z,0
2018-04-07T00:03:56.810Z,0
2018-04-07T00:04:58.431Z,0
2018-04-07T00:06:00.038Z,0
2018-04-07T00:07:01.657Z,0
2018-04-07T00:08:03.267Z,0
2018-04-07T00:09:05.454Z,0
2018-04-07T00:10:07.073Z,0
2018-04-07T00:11:08.687Z,0
2018-04-07T00:12:10.304Z,0
2018-04-07T00:13:11.917Z,0
2018-04-07T00:14:13.534Z,0
2018-04-07T00:15:15.147Z,0
2018-04-07T00:16:16.763Z,0
2018-04-07T00:17:18.377Z,0
2018-04-07T00:18:19.995Z,0
2018-04-07T00:19:21.615Z,0
2018-04-07T00:20:23.222Z,0
2018-04-07T00:21:24.839Z,0
2018-04-07T00:22:26.454Z,0
2018-04-07T00:23:28.070Z,0
2018-04-07T00:24:29.686Z,0
2018-04-07T00:25:31.302Z,0
2018-04-07T00:26:32.916Z,0
2018-04-07T00:27:34.529Z,0
2018-04-07T00:28:36.144Z,0
2018-04-07T00:29:37.759Z,0
2018-04-07T00:30:39.374Z,0
2018-04-07T00:31:40.992Z,0
2018-04-07T00:32:42.609Z,0
2018-04-07T00:33:44.228Z,0
2018-04-07T00:34:45.843Z,0
2018-04-07T00:35:47.456Z,0
2018-04-07T00:36:49.070Z,0
2018-04-07T00:37:50.685Z,0
2018-04-07T00:38:52.304Z,0
2018-04-07T00:39:53.921Z,0
2018-04-07T00:40:55.536Z,0
2018-04-07T00:41:57.158Z,0
2018-04-07T00:42:58.768Z,0
2018-04-07T00:44:00.382Z,0
2018-04-07T00:45:02.000Z,0
2018-04-07T00:46:03.616Z,0
2018-04-07T00:47:05.233Z,0
2018-04-07T00:48:06.852Z,0
2018-04-07T00:49:08.464Z,0
2018-04-07T00:50:10.080Z,0
2018-04-07T00:51:11.692Z,0
2018-04-07T00:52:13.305Z,0
2018-04-07T00:53:14.924Z,0
2018-04-07T00:54:16.535Z,0
2018-04-07T00:55:18.152Z,0
2018-04-07T00:56:19.768Z,0
2018-04-07T00:57:21.382Z,0
2018-04-07T00:58:22.996Z,0
2018-04-07T00:59:24.611Z,0
2018-04-07T01:00:26.225Z,0
2018-04-07T01:01:27.841Z,0
2018-04-07T01:02:29.457Z,0
2018-04-07T01:03:31.071Z,0
2018-04-07T01:04:32.687Z,0
2018-04-07T01:05:34.300Z,0
2018-04-07T01:06:35.914Z,0
2018-04-07T01:07:37.527Z,0
2018-04-07T01:08:39.151Z,0
2018-04-07T01:09:40.765Z,0
2018-04-07T01:10:42.380Z,0
2018-04-07T01:11:43.995Z,0
2018-04-07T01:12:45.608Z,0
2018-04-07T01:13:47.224Z,0
2018-04-07T01:14:48.838Z,0
2018-04-07T01:15:50.457Z,0
2018-04-07T01:16:52.071Z,0
2018-04-07T01:17:53.686Z,0
2018-04-07T01:18:55.301Z,0
2018-04-07T01:19:56.915Z,0
2018-04-07T01:20:58.530Z,0
2018-04-07T01:22:00.145Z,0
2018-04-07T01:23:01.762Z,0
2018-04-07T01:24:03.378Z,0
2018-04-07T01:25:04.991Z,0
2018-04-07T01:26:06.605Z,0
2018-04-07T01:27:08.219Z,0
2018-04-07T01:28:09.831Z,0
2018-04-07T01:29:11.451Z,0
2018-04-07T01:30:13.068Z,0
2018-04-07T01:31:14.678Z,0
2018-04-07T01:32:16.294Z,0
2018-04-07T01:33:17.907Z,0
2018-04-07T01:34:19.522Z,0
2018-04-07T01:35:21.138Z,0
2018-04-07T01:36:22.756Z,0
2018-04-07T01:37:24.374Z,0
2018-04-07T01:38:25.987Z,0
2018-04-07T01:39:27.603Z,0
2018-04-07T01:40:29.217Z,0
2018-04-07T01:41:30.830Z,0
2018-04-07T01:42:32.446Z,0
2018-04-07T01:43:34.062Z,0
2018-04-07T01:44:35.678Z,0
2018-04-07T01:45:37.295Z,0
2018-04-07T01:46:38.911Z,0
2018-04-07T01:47:40.526Z,0
2018-04-07T01:48:42.139Z,0
2018-04-07T01:49:43.753Z,0
2018-04-07T01:50:45.368Z,0
2018-04-07T01:51:46.984Z,0
2018-04-07T01:52:48.600Z,0
2018-04-07T01:53:50.216Z,0
2018-04-07T01:54:51.830Z,0
2018-04-07T01:55:53.443Z,0
2018-04-07T01:56:55.080Z,0
2018-04-07T01:57:56.695Z,0
2018-04-07T01:58:58.311Z,0
2018-04-07T01:59:59.927Z,0
2018-04-07T02:01:01.539Z,0
2018-04-07T02:02:03.154Z,0
2018-04-07T02:03:04.767Z,0
2018-04-07T02:04:06.384Z,0
2018-04-07T02:05:07.997Z,0
2018-04-07T02:06:09.616Z,0
2018-04-07T02:07:11.229Z,0
2018-04-07T02:08:12.842Z,0
2018-04-07T02:09:14.460Z,0
2018-04-07T02:10:16.070Z,0
2018-04-07T02:11:17.693Z,0
2018-04-07T02:12:19.304Z,0
2018-04-07T02:13:20.921Z,0
2018-04-07T02:14:22.537Z,0
2018-04-07T02:15:24.151Z,0
2018-04-07T02:16:25.762Z,0
2018-04-07T02:17:27.377Z,0
2018-04-07T02:18:28.995Z,0
2018-04-07T02:19:30.608Z,0
2018-04-07T02:20:32.225Z,0
2018-04-07T02:21:33.844Z,0
2018-04-07T02:22:35.456Z,0
2018-04-07T02:23:37.070Z,0
2018-04-07T02:24:38.685Z,0
2018-04-07T02:25:40.301Z,0
2018-04-07T02:26:41.916Z,0
2018-04-07T02:27:43.530Z,0
2018-04-07T02:28:45.146Z,0
2018-04-07T02:29:46.761Z,0
2018-04-07T02:30:48.378Z,0
2018-04-07T02:31:49.988Z,0
2018-04-07T02:32:51.611Z,0
2018-04-07T02:33:53.217Z,0
2018-04-07T02:34:54.833Z,0
2018-04-07T02:35:56.450Z,0
2018-04-07T02:36:58.063Z,0
2018-04-07T02:37:59.678Z,0
2018-04-07T02:39:01.298Z,0
2018-04-07T02:40:02.914Z,0
2018-04-07T02:41:04.529Z,0
2018-04-07T02:42:06.140Z,0
2018-04-07T02:43:07.756Z,0
2018-04-07T02:44:09.369Z,0
2018-04-07T02:45:10.981Z,0
2018-04-07T02:46:12.598Z,0
2018-04-07T02:47:14.209Z,0
2018-04-07T02:48:15.827Z,0
2018-04-07T02:49:17.449Z,0
2018-04-07T02:50:19.186Z,0
2018-04-07T02:51:20.667Z,0
2018-04-07T02:52:22.294Z,0
2018-04-07T02:53:23.909Z,0
2018-04-07T02:54:25.558Z,0
2018-04-07T02:55:27.138Z,0
2018-04-07T02:56:28.753Z,0
2018-04-07T02:57:30.371Z,0
2018-04-07T02:58:31.988Z,0
2018-04-07T02:59:33.596Z,0
2018-04-07T03:00:35.211Z,0
2018-04-07T03:01:36.823Z,0
2018-04-07T03:02:38.439Z,0
2018-04-07T03:03:40.079Z,0
2018-04-07T03:04:41.667Z,0
2018-04-07T03:05:43.282Z,0
2018-04-07T03:06:44.895Z,0
2018-04-07T03:07:46.510Z,0
2018-04-07T03:08:48.124Z,0
2018-04-07T03:09:49.738Z,0
2018-04-07T03:10:51.353Z,0
2018-04-07T03:11:52.968Z,0
2018-04-07T03:12:54.581Z,0
2018-04-07T03:13:56.199Z,0
2018-04-07T03:14:58.705Z,0
2018-04-07T03:16:00.315Z,0
2018-04-07T03:17:01.936Z,0
2018-04-07T03:18:03.546Z,0
2018-04-07T03:19:05.162Z,0
2018-04-07T03:20:06.777Z,0
2018-04-07T03:21:08.390Z,0
2018-04-07T03:22:10.006Z,0
2018-04-07T03:23:11.626Z,0
2018-04-07T03:24:13.237Z,0
2018-04-07T03:25:14.854Z,0
2018-04-07T03:26:16.471Z,0
2018-04-07T03:27:18.080Z,0
2018-04-07T03:28:19.696Z,0
2018-04-07T03:29:21.309Z,0
2018-04-07T03:30:22.925Z,0
2018-04-07T03:31:24.540Z,0
2018-04-07T03:32:26.154Z,0
2018-04-07T03:33:27.768Z,0
2018-04-07T03:34:29.382Z,0
2018-04-07T03:35:30.994Z,0
2018-04-07T03:36:32.610Z,0
2018-04-07T03:37:34.223Z,0
2018-04-07T03:38:35.839Z,0
2018-04-07T03:39:37.461Z,0
2018-04-07T03:40:39.071Z,0
2018-04-07T03:41:40.682Z,0
2018-04-07T03:42:42.296Z,0
2018-04-07T03:43:43.912Z,0
2018-04-07T03:44:45.528Z,0
2018-04-07T03:45:47.142Z,0
2018-04-07T03:46:48.757Z,0
2018-04-07T03:47:50.374Z,0
2018-04-07T03:48:51.986Z,0
2018-04-07T03:49:53.600Z,0
2018-04-07T03:50:55.213Z,0
2018-04-07T03:51:56.829Z,0
2018-04-07T03:52:58.440Z,0
2018-04-07T03:54:00.057Z,0
2018-04-07T03:55:01.677Z,0
2018-04-07T03:56:03.285Z,0
2018-04-07T03:57:04.899Z,0
2018-04-07T03:58:06.512Z,0
2018-04-07T03:59:08.126Z,0
2018-04-07T04:00:09.744Z,0
2018-04-07T04:01:11.358Z,0
2018-04-07T04:02:12.974Z,0
2018-04-07T04:03:14.592Z,0
2018-04-07T04:04:16.201Z,0
2018-04-07T04:05:17.812Z,0
2018-04-07T04:06:19.425Z,0
2018-04-07T04:07:21.042Z,0
2018-04-07T04:08:22.651Z,0
2018-04-07T04:09:24.268Z,0
2018-04-07T04:10:25.880Z,0
2018-04-07T04:11:27.495Z,0
2018-04-07T04:12:29.111Z,0
2018-04-07T04:13:30.721Z,0
2018-04-07T04:14:32.333Z,0
2018-04-07T04:15:33.948Z,0
2018-04-07T04:16:35.565Z,0
2018-04-07T04:17:37.174Z,0
2018-04-07T04:18:38.790Z,0
2018-04-07T04:19:40.396Z,0
2018-04-07T04:20:42.010Z,0
2018-04-07T04:21:43.624Z,0
2018-04-07T04:22:45.238Z,0
2018-04-07T04:23:46.856Z,4
2018-04-07T04:24:48.463Z,4
2018-04-07T04:25:50.075Z,0
2018-04-07T04:26:52.146Z,4
2018-04-07T04:27:53.244Z,4
2018-04-07T04:28:54.862Z,4
2018-04-07T04:29:56.479Z,8
2018-04-07T04:30:58.095Z,8
2018-04-07T04:31:59.709Z,8
2018-04-07T04:33:01.312Z,8
2018-04-07T04:34:02.935Z,8
2018-04-07T04:35:04.547Z,12
2018-04-07T04:36:06.161Z,16
2018-04-07T04:37:07.775Z,20
2018-04-07T04:38:09.392Z,24
2018-04-07T04:39:11.003Z,28
2018-04-07T04:40:12.615Z,32
2018-04-07T04:41:14.227Z,36
2018-04-07T04:42:15.840Z,44
2018-04-07T04:43:17.459Z,48
2018-04-07T04:44:19.072Z,56
2018-04-07T04:45:20.688Z,64
2018-04-07T04:46:22.302Z,68
2018-04-07T04:47:24.648Z,80
2018-04-07T04:48:25.490Z,88
2018-04-07T04:49:27.109Z,96
2018-04-07T04:50:28.724Z,112
2018-04-07T04:51:30.343Z,124
2018-04-07T04:52:31.959Z,136
2018-04-07T04:53:33.575Z,156
2018-04-07T04:54:35.191Z,172
2018-04-07T04:55:36.806Z,188
2018-04-07T04:56:38.424Z,212
2018-04-07T04:57:40.040Z,232
2018-04-07T04:58:41.657Z,252
2018-04-07T04:59:43.275Z,276
2018-04-07T05:00:44.890Z,300
2018-04-07T05:01:46.503Z,324
2018-04-07T05:02:48.130Z,352
2018-04-07T05:03:49.740Z,380
2018-04-07T05:04:51.357Z,408
2018-04-07T05:05:52.975Z,436
2018-04-07T05:06:54.594Z,468
2018-04-07T05:07:56.206Z,504
2018-04-07T05:08:57.822Z,536
2018-04-07T05:09:59.436Z,564
2018-04-07T05:11:01.052Z,600
2018-04-07T05:12:02.667Z,636
2018-04-07T05:13:04.284Z,676
2018-04-07T05:14:05.901Z,712
2018-04-07T05:15:07.518Z,752
2018-04-07T05:16:09.134Z,792
2018-04-07T05:17:10.748Z,832
2018-04-07T05:18:12.366Z,868
2018-04-07T05:19:13.984Z,908
2018-04-07T05:20:15.602Z,824
2018-04-07T05:21:17.224Z,944
2018-04-07T05:22:18.864Z,1044
2018-04-07T05:23:20.475Z,1088
2018-04-07T05:24:22.097Z,1132
2018-04-07T05:25:23.720Z,1168
2018-04-07T05:26:25.339Z,1204
2018-04-07T05:27:27.454Z,1244
2018-04-07T05:28:29.078Z,1280
2018-04-07T05:29:30.688Z,1320
2018-04-07T05:30:32.304Z,1364
2018-04-07T05:31:33.923Z,1416
2018-04-07T05:32:35.542Z,1464
2018-04-07T05:33:37.162Z,1512
2018-04-07T05:34:38.776Z,1560
2018-04-07T05:35:40.393Z,1608
2018-04-07T05:36:42.013Z,1660
2018-04-07T05:37:43.629Z,1712
2018-04-07T05:38:45.253Z,1760
2018-04-07T05:39:46.862Z,1816
2018-04-07T05:40:48.481Z,1872
2018-04-07T05:41:50.093Z,1924
2018-04-07T05:42:51.718Z,1976
2018-04-07T05:43:53.328Z,2032
2018-04-07T05:44:54.949Z,2088
2018-04-07T05:45:56.568Z,2140
2018-04-07T05:46:58.186Z,2192
2018-04-07T05:47:59.803Z,2240
2018-04-07T05:49:01.434Z,2300
2018-04-07T05:50:03.052Z,2264
2018-04-07T05:51:04.676Z,2228
2018-04-07T05:52:06.287Z,2352
2018-04-07T05:53:08.072Z,2520
2018-04-07T05:54:09.688Z,2568
2018-04-07T05:55:11.304Z,2608
2018-04-07T05:56:12.927Z,2640
2018-04-07T05:57:14.546Z,2676
2018-04-07T05:58:16.166Z,2708
2018-04-07T05:59:17.775Z,2744
2018-04-07T06:00:19.394Z,2776
2018-04-07T06:01:21.011Z,2804
2018-04-07T06:02:22.635Z,2840
2018-04-07T06:03:24.251Z,2872
2018-04-07T06:04:25.873Z,2900
2018-04-07T06:05:27.483Z,2928
2018-04-07T06:06:29.102Z,2952
2018-04-07T06:07:30.721Z,2968
2018-04-07T06:08:32.335Z,2936
2018-04-07T06:09:33.959Z,2988
2018-04-07T06:10:35.583Z,3228
2018-04-07T06:11:37.193Z,4312
2018-04-07T06:12:38.814Z,5192
2018-04-07T06:13:40.437Z,5600
2018-04-07T06:14:42.056Z,5552
2018-04-07T06:15:43.672Z,5696
2018-04-07T06:16:45.300Z,5680
2018-04-07T06:17:46.914Z,5736
2018-04-07T06:18:48.539Z,5872
2018-04-07T06:19:50.161Z,5976
2018-04-07T06:20:51.783Z,5824
2018-04-07T06:21:53.417Z,5820
2018-04-07T06:22:55.055Z,6080
2018-04-07T06:23:56.645Z,6176
2018-04-07T06:24:58.273Z,6164
2018-04-07T06:25:59.891Z,6280
2018-04-07T06:27:01.510Z,6304
2018-04-07T06:28:03.134Z,6296
2018-04-07T06:29:04.757Z,6388
2018-04-07T06:30:06.383Z,1976
2018-04-07T06:31:08.006Z,6476
2018-04-07T06:32:09.629Z,6468
2018-04-07T06:33:11.257Z,6496
2018-04-07T06:34:12.882Z,6472
2018-04-07T06:35:14.503Z,6364
2018-04-07T06:36:16.128Z,6316
2018-04-07T06:37:17.755Z,6448
2018-04-07T06:38:19.376Z,6420
2018-04-07T06:39:21.007Z,6612
2018-04-07T06:40:22.631Z,6560
2018-04-07T06:41:25.038Z,6356
2018-04-07T06:42:26.654Z,6420
2018-04-07T06:43:28.280Z,6496
2018-04-07T06:44:29.905Z,6076
2018-04-07T06:45:31.531Z,6020
2018-04-07T06:46:33.156Z,7116
2018-04-07T06:47:35.301Z,7272
2018-04-07T06:48:36.941Z,7288
2018-04-07T06:49:38.568Z,7360
2018-04-07T06:50:40.196Z,7340
2018-04-07T06:51:41.825Z,7336
2018-04-07T06:52:43.452Z,7164
2018-04-07T06:53:45.080Z,7316
2018-04-07T06:54:46.703Z,7720
2018-04-07T06:55:48.328Z,7952
2018-04-07T06:56:49.948Z,8076
2018-04-07T06:57:51.589Z,8224
2018-04-07T06:58:53.215Z,8356
2018-04-07T06:59:54.841Z,8396
2018-04-07T07:00:56.465Z,8432
2018-04-07T07:01:58.100Z,8188
2018-04-07T07:02:59.716Z,8272
2018-04-07T07:04:01.352Z,8344
2018-04-07T07:05:02.979Z,8304
2018-04-07T07:06:04.601Z,8812
2018-04-07T07:07:06.232Z,8884
2018-04-07T07:08:07.858Z,8940
2018-04-07T07:09:09.485Z,9168
2018-04-07T07:10:11.111Z,9192
2018-04-07T07:11:12.737Z,9180
2018-04-07T07:12:14.362Z,9212
2018-04-07T07:13:15.993Z,9268
2018-04-07T07:14:18.124Z,9424
2018-04-07T07:15:19.757Z,9516
2018-04-07T07:16:21.387Z,9472
2018-04-07T07:17:23.018Z,9692
2018-04-07T07:18:24.642Z,9712
2018-04-07T07:19:26.268Z,9648
2018-04-07T07:20:27.894Z,9880
2018-04-07T07:21:29.528Z,9956
2018-04-07T07:22:31.156Z,10124
2018-04-07T07:23:32.791Z,10404
2018-04-07T07:24:34.417Z,10544
2018-04-07T07:25:36.050Z,10596
2018-04-07T07:26:37.679Z,10768
2018-04-07T07:27:39.309Z,10856
2018-04-07T07:28:40.939Z,10936
2018-04-07T07:29:42.569Z,10956
2018-04-07T07:30:44.209Z,10908
2018-04-07T07:31:45.833Z,10900
2018-04-07T07:32:47.469Z,10892
2018-04-07T07:33:49.095Z,11036
2018-04-07T07:34:50.729Z,10984
2018-04-07T07:35:52.365Z,10968
2018-04-07T07:36:53.995Z,10848
2018-04-07T07:37:55.632Z,10860
2018-04-07T07:38:57.258Z,10712
2018-04-07T07:39:58.894Z,10964
2018-04-07T07:41:00.523Z,10728
2018-04-07T07:42:02.190Z,10556
2018-04-07T07:43:03.794Z,10680
2018-04-07T07:44:05.431Z,10564
2018-04-07T07:45:07.073Z,10644
2018-04-07T07:46:08.702Z,10440
2018-04-07T07:47:10.327Z,10512
2018-04-07T07:48:11.964Z,10388
2018-04-07T07:49:14.228Z,10644
2018-04-07T07:50:15.863Z,3452
2018-04-07T07:51:17.493Z,10604
2018-04-07T07:52:19.130Z,10320
2018-04-07T07:53:20.760Z,10396
2018-04-07T07:54:22.399Z,10476
2018-04-07T07:55:24.027Z,10692
2018-04-07T07:56:25.668Z,10856
2018-04-07T07:57:27.298Z,10036
2018-04-07T07:58:28.955Z,10576
2018-04-07T07:59:30.592Z,10580
2018-04-07T08:00:32.222Z,10540
2018-04-07T08:01:33.855Z,10368
2018-04-07T08:02:35.492Z,10980
2018-04-07T08:03:37.130Z,11200
2018-04-07T08:04:38.758Z,11224
2018-04-07T08:05:40.390Z,11368
2018-04-07T08:06:42.028Z,11540
2018-04-07T08:07:43.663Z,11396
2018-04-07T08:08:45.982Z,11536
2018-04-07T08:09:47.611Z,11600
2018-04-07T08:10:49.250Z,11724
2018-04-07T08:11:50.877Z,11932
2018-04-07T08:12:52.517Z,12060
2018-04-07T08:13:54.147Z,12148
2018-04-07T08:14:55.778Z,12264
2018-04-07T08:15:57.417Z,12104
2018-04-07T08:16:59.048Z,12248
2018-04-07T08:18:00.680Z,12420
2018-04-07T08:19:02.319Z,12476
2018-04-07T08:20:03.957Z,12464
2018-04-07T08:21:05.583Z,12540
2018-04-07T08:22:07.215Z,12672
2018-04-07T08:23:08.852Z,12784
2018-04-07T08:24:10.490Z,12916
2018-04-07T08:25:12.120Z,12912
2018-04-07T08:26:13.802Z,13144
2018-04-07T08:27:15.396Z,13300
2018-04-07T08:28:17.030Z,13436
2018-04-07T08:29:18.666Z,13560
2018-04-07T08:30:20.299Z,12848
2018-04-07T08:31:21.933Z,13352
2018-04-07T08:32:23.569Z,13804
2018-04-07T08:33:25.210Z,14052
2018-04-07T08:34:26.844Z,14260
2018-04-07T08:35:28.483Z,14080
2018-04-07T08:36:30.119Z,14384
2018-04-07T08:37:31.757Z,14344
2018-04-07T08:38:33.389Z,14200
2018-04-07T08:39:35.079Z,14076
2018-04-07T08:40:36.666Z,14292
2018-04-07T08:41:38.308Z,14440
2018-04-07T08:42:39.943Z,14764
2018-04-07T08:43:41.574Z,15280
2018-04-07T08:44:43.204Z,15500
2018-04-07T08:45:44.843Z,15056
2018-04-07T08:46:46.477Z,4592
2018-04-07T08:47:48.117Z,15240
2018-04-07T08:48:49.756Z,16712
2018-04-07T08:49:51.390Z,4512
2018-04-07T08:50:53.022Z,19808
2018-04-07T08:51:54.661Z,20256
2018-04-07T08:52:56.290Z,22528
2018-04-07T08:53:57.933Z,24480
2018-04-07T08:54:59.565Z,28256
2018-04-07T08:56:01.205Z,29760
2018-04-07T08:57:02.836Z,29856
2018-04-07T08:58:04.474Z,32288
2018-04-07T08:59:06.105Z,35552
2018-04-07T09:00:07.746Z,40992
2018-04-07T09:01:09.377Z,47424
2018-04-07T09:02:11.018Z,52128
2018-04-07T09:03:12.657Z,58048
2018-04-07T09:04:14.293Z,64480
2018-04-07T09:05:15.933Z,62944
2018-04-07T09:06:17.556Z,63232
2018-04-07T09:07:19.193Z,65600
2018-04-07T09:08:20.835Z,67424
2018-04-07T09:09:22.470Z,61152
2018-04-07T09:10:24.103Z,59968
2018-04-07T09:11:25.739Z,54976
2018-04-07T09:12:27.376Z,53088
2018-04-07T09:13:29.014Z,56320
2018-04-07T09:14:30.666Z,54016
2018-04-07T09:15:32.294Z,46368
2018-04-07T09:16:33.927Z,49280
2018-04-07T09:17:36.143Z,45888
2018-04-07T09:18:37.789Z,43072
2018-04-07T09:19:39.420Z,40640
2018-04-07T09:20:41.055Z,39744
2018-04-07T09:21:42.695Z,38848
2018-04-07T09:22:44.330Z,37600
2018-04-07T09:23:45.970Z,37728
2018-04-07T09:24:47.611Z,38048
2018-04-07T09:25:49.298Z,38016
2018-04-07T09:26:50.880Z,39392
2018-04-07T09:27:52.522Z,39072
2018-04-07T09:28:54.155Z,39584
2018-04-07T09:29:55.796Z,40704
2018-04-07T09:30:57.434Z,41408
2018-04-07T09:31:59.068Z,41856
2018-04-07T09:33:00.714Z,43008
2018-04-07T09:34:03.297Z,44800
2018-04-07T09:35:04.931Z,46304
2018-04-07T09:36:06.569Z,47328
2018-04-07T09:37:08.211Z,48288
2018-04-07T09:38:09.851Z,48768
2018-04-07T09:39:11.487Z,51328
2018-04-07T09:40:13.124Z,56352
2018-04-07T09:41:14.762Z,54912
2018-04-07T09:42:16.398Z,52064
2018-04-07T09:43:18.038Z,52736
2018-04-07T09:44:19.677Z,53504
2018-04-07T09:45:21.312Z,53408
2018-04-07T09:46:22.958Z,55392
2018-04-07T09:47:24.593Z,56096
2018-04-07T09:48:26.232Z,60288
2018-04-07T09:49:27.878Z,61248
2018-04-07T09:50:29.504Z,64000
2018-04-07T09:51:31.143Z,66304
2018-04-07T09:52:32.784Z,67392
2018-04-07T09:53:34.469Z,68896
2018-04-07T09:54:36.067Z,70432
2018-04-07T09:55:38.558Z,69408
2018-04-07T09:56:40.192Z,72704
2018-04-07T09:57:41.834Z,72352
2018-04-07T09:58:43.471Z,72288
2018-04-07T09:59:45.115Z,73504
2018-04-07T10:00:46.754Z,73920
2018-04-07T10:01:48.393Z,72224
2018-04-07T10:02:50.039Z,72032
2018-04-07T10:03:51.666Z,71488
2018-04-07T10:04:53.307Z,70176
2018-04-07T10:05:54.943Z,68160
2018-04-07T10:06:56.580Z,67744
2018-04-07T10:07:58.217Z,59360
2018-04-07T10:08:59.861Z,64608
2018-04-07T10:10:01.501Z,63872
2018-04-07T10:11:03.141Z,61344
2018-04-07T10:12:04.785Z,57536
2018-04-07T10:13:07.421Z,58208
2018-04-07T10:14:09.052Z,55744
2018-04-07T10:15:10.689Z,3676
2018-04-07T10:16:12.337Z,51328
2018-04-07T10:17:13.970Z,48320
2018-04-07T10:18:15.606Z,44480
2018-04-07T10:19:17.248Z,38880
2018-04-07T10:20:18.889Z,41856
2018-04-07T10:21:20.528Z,34656
2018-04-07T10:22:22.167Z,39872
2018-04-07T10:23:23.814Z,39392
2018-04-07T10:24:26.434Z,38368
2018-04-07T10:25:28.069Z,37344
2018-04-07T10:26:29.707Z,36672
2018-04-07T10:27:31.344Z,36608
2018-04-07T10:28:32.987Z,44640
2018-04-07T10:29:34.629Z,97248
2018-04-07T10:30:36.266Z,124160
2018-04-07T10:31:37.904Z,86112
2018-04-07T10:32:40.947Z,54176
2018-04-07T10:33:42.589Z,42112
2018-04-07T10:34:44.225Z,41440
2018-04-07T10:35:45.866Z,39808
2018-04-07T10:36:47.513Z,38944
2018-04-07T10:37:49.143Z,37600
2018-04-07T10:38:50.787Z,36000
2018-04-07T10:39:52.419Z,33824
2018-04-07T10:40:54.061Z,32672
2018-04-07T10:41:55.702Z,32160
2018-04-07T10:42:57.344Z,31360
2018-04-07T10:43:58.984Z,31488
2018-04-07T10:45:00.628Z,30560
2018-04-07T10:46:02.267Z,31232
2018-04-07T10:47:03.904Z,31008
2018-04-07T10:48:05.544Z,31392
2018-04-07T10:49:07.182Z,31840
2018-04-07T10:50:08.819Z,33888
2018-04-07T10:51:10.464Z,61344
2018-04-07T10:52:12.108Z,104416
2018-04-07T10:53:13.744Z,6384
2018-04-07T10:54:15.386Z,118432
2018-04-07T10:55:17.022Z,118656
2018-04-07T10:56:18.670Z,121184
2018-04-07T10:57:20.310Z,120096
2018-04-07T10:58:21.955Z,122240
2018-04-07T10:59:23.600Z,121792
2018-04-07T11:00:25.240Z,117632
2018-04-07T11:01:26.877Z,115232
2018-04-07T11:02:28.519Z,112096
2018-04-07T11:03:30.159Z,112832
2018-04-07T11:04:31.799Z,116064
2018-04-07T11:05:33.444Z,116640
2018-04-07T11:06:35.086Z,117600
2018-04-07T11:07:36.730Z,109056
2018-04-07T11:08:38.372Z,105760
2018-04-07T11:09:40.014Z,114624
2018-04-07T11:10:41.667Z,118304
2018-04-07T11:11:43.304Z,118784
2018-04-07T11:12:44.950Z,117536
2018-04-07T11:13:46.587Z,118752
2018-04-07T11:14:48.231Z,115104
2018-04-07T11:15:49.881Z,115648
2018-04-07T11:16:51.518Z,121312
2018-04-07T11:17:53.161Z,116256
2018-04-07T11:18:54.803Z,79360
2018-04-07T11:19:56.446Z,42464
2018-04-07T11:20:58.084Z,29888
2018-04-07T11:21:59.725Z,28480
2018-04-07T11:23:01.364Z,28064
2018-04-07T11:24:03.722Z,27296
2018-04-07T11:25:05.361Z,27392
2018-04-07T11:26:07.004Z,27488
2018-04-07T11:27:08.642Z,27552
2018-04-07T11:28:10.286Z,27680
2018-04-07T11:29:12.112Z,27168
2018-04-07T11:30:13.758Z,27008
2018-04-07T11:31:15.395Z,27296
2018-04-07T11:32:17.039Z,27392
2018-04-07T11:33:18.675Z,27712
2018-04-07T11:34:20.322Z,28320
2018-04-07T11:35:21.990Z,30144
2018-04-07T11:36:23.603Z,34336
2018-04-07T11:37:25.241Z,44416
2018-04-07T11:38:26.884Z,58880
2018-04-07T11:39:28.521Z,78944
2018-04-07T11:40:30.169Z,105472
2018-04-07T11:41:31.816Z,122848
2018-04-07T11:42:33.455Z,122112
2018-04-07T11:43:35.093Z,120096
2018-04-07T11:44:36.736Z,120320
2018-04-07T11:45:38.373Z,118912
2018-04-07T11:46:40.020Z,113952
2018-04-07T11:47:41.658Z,118368
2018-04-07T11:48:43.306Z,123776
2018-04-07T11:49:44.963Z,122176
2018-04-07T11:50:46.591Z,122688
2018-04-07T11:51:48.225Z,119008
2018-04-07T11:52:49.869Z,119552
2018-04-07T11:53:51.512Z,121120
2018-04-07T11:54:53.150Z,120992
2018-04-07T11:55:54.791Z,118144
2018-04-07T11:56:56.436Z,115040
2018-04-07T11:57:58.079Z,114368
2018-04-07T11:58:59.717Z,104192
2018-04-07T12:00:01.354Z,113824
2018-04-07T12:01:03.000Z,112736
2018-04-07T12:02:04.646Z,112128
2018-04-07T12:03:06.289Z,115424
2018-04-07T12:04:07.928Z,122912
2018-04-07T12:05:09.564Z,120992
2018-04-07T12:06:11.205Z,122752
2018-04-07T12:07:12.851Z,122880
2018-04-07T12:08:14.489Z,120288
2018-04-07T12:09:16.133Z,114144
2018-04-07T12:10:17.777Z,111776
2018-04-07T12:11:19.415Z,112480
2018-04-07T12:12:21.052Z,111744
2018-04-07T12:13:22.694Z,111744
2018-04-07T12:14:24.333Z,110016
2018-04-07T12:15:25.971Z,106784
2018-04-07T12:16:27.610Z,110912
2018-04-07T12:17:29.255Z,109632
2018-04-07T12:18:30.897Z,103520
2018-04-07T12:19:32.541Z,106304
2018-04-07T12:20:34.175Z,106400
2018-04-07T12:21:35.813Z,105376
2018-04-07T12:22:37.459Z,103584
2018-04-07T12:23:39.098Z,105056
2018-04-07T12:24:40.747Z,111616
2018-04-07T12:25:42.384Z,107680
2018-04-07T12:26:44.025Z,100864
2018-04-07T12:27:45.661Z,103264
2018-04-07T12:28:47.302Z,105120
2018-04-07T12:29:48.940Z,86112
2018-04-07T12:30:50.580Z,76160
2018-04-07T12:31:52.224Z,93984
2018-04-07T12:32:53.863Z,107840
2018-04-07T12:33:55.533Z,109152
2018-04-07T12:34:57.144Z,108128
2018-04-07T12:35:58.786Z,107744
2018-04-07T12:37:00.421Z,104800
2018-04-07T12:38:02.065Z,108000
2018-04-07T12:39:03.705Z,106560
2018-04-07T12:40:05.350Z,103840
2018-04-07T12:41:06.988Z,102912
2018-04-07T12:42:08.629Z,103360
2018-04-07T12:43:10.264Z,102304
2018-04-07T12:44:11.905Z,102208
2018-04-07T12:45:13.547Z,99648
2018-04-07T12:46:15.183Z,99200
2018-04-07T12:47:16.824Z,98720
2018-04-07T12:48:18.464Z,99200
2018-04-07T12:49:20.099Z,94336
2018-04-07T12:50:21.740Z,90368
2018-04-07T12:51:23.376Z,88896
2018-04-07T12:52:25.018Z,86560
2018-04-07T12:53:26.656Z,93600
2018-04-07T12:54:28.300Z,89056
2018-04-07T12:55:29.935Z,85600
2018-04-07T12:56:31.574Z,84736
2018-04-07T12:57:33.213Z,83776
2018-04-07T12:58:34.848Z,78848
2018-04-07T12:59:36.485Z,81184
2018-04-07T13:00:38.127Z,90816
2018-04-07T13:01:39.766Z,90560
2018-04-07T13:02:42.180Z,89856
2018-04-07T13:03:43.818Z,88160
2018-04-07T13:04:45.453Z,86560
2018-04-07T13:05:47.090Z,86656
2018-04-07T13:06:48.735Z,83136
2018-04-07T13:07:50.370Z,84192
2018-04-07T13:08:52.012Z,84992
2018-04-07T13:09:53.646Z,86592
2018-04-07T13:10:55.279Z,85152
2018-04-07T13:11:56.916Z,86784
2018-04-07T13:12:58.556Z,85888
2018-04-07T13:14:00.188Z,84448
2018-04-07T13:15:01.833Z,80704
2018-04-07T13:16:03.470Z,79168
2018-04-07T13:17:05.114Z,80512
2018-04-07T13:18:06.746Z,81664
2018-04-07T13:19:08.384Z,82976
2018-04-07T13:20:10.025Z,84928
2018-04-07T13:21:11.660Z,84320
2018-04-07T13:22:13.296Z,84256
2018-04-07T13:23:14.937Z,85696
2018-04-07T13:24:16.568Z,87488
2018-04-07T13:25:18.209Z,82176
2018-04-07T13:26:19.880Z,79104
2018-04-07T13:27:22.296Z,77536
2018-04-07T13:28:23.897Z,83840
2018-04-07T13:29:25.536Z,87872
2018-04-07T13:30:27.171Z,82016
2018-04-07T13:31:28.803Z,83584
2018-04-07T13:32:30.442Z,81952
2018-04-07T13:33:38.525Z,82624
2018-04-07T13:34:33.720Z,83712
2018-04-07T13:35:35.363Z,81728
2018-04-07T13:36:36.993Z,76000
2018-04-07T13:37:38.633Z,83648
2018-04-07T13:38:40.271Z,83872
2018-04-07T13:39:41.901Z,83616
2018-04-07T13:40:43.542Z,79456
2018-04-07T13:41:45.176Z,76992
2018-04-07T13:42:46.809Z,78560
2018-04-07T13:43:48.450Z,77536
2018-04-07T13:44:50.093Z,76864
2018-04-07T13:45:51.728Z,71104
2018-04-07T13:46:53.365Z,75072
2018-04-07T13:47:54.996Z,75424
2018-04-07T13:48:56.634Z,78240
2018-04-07T13:49:58.269Z,78688
2018-04-07T13:50:59.910Z,78368
2018-04-07T13:52:02.421Z,77920
2018-04-07T13:53:04.047Z,77152
2018-04-07T13:54:05.683Z,78304